Time;durP1;ratioP1;P1;durP2;ratioP2;P2;SDS_P1;SDS_P2;PMS_P1;PMS_P2;Temp;Humidity;BMP_temperature;BMP_pressure;BME280_temperature;BME280_humidity;BME280_pressure;Samples;Min_cycle;Max_cycle;Signal;HPM_P1;HPM_P2
2021/05/31 00:01:39;;;;;;;11.40;10.50;;;;;;;;;;4991131;28;20178;-46
2021/05/31 00:04:04;;;;;;;10.67;9.77;;;;;;;;;;4987470;28;20680;-47
2021/05/31 00:06:35;;;;;;;10.37;9.50;;;;;;;;;;4988126;28;20179;-46
2021/05/31 00:09:00;;;;;;;10.60;9.80;;;;;;;;;;4971532;28;20643;-47
2021/05/31 00:11:25;;;;;;;10.80;9.90;;;;;;;;;;4985942;28;20992;-47
2021/05/31 00:13:50;;;;;;;11.32;10.43;;;;;;;;;;4989234;28;20186;-47
2021/05/31 00:16:15;;;;;;;11.75;10.57;;;;;;;;;;5007570;28;20178;-48
2021/05/31 00:18:40;;;;;;;10.80;9.90;;;;;;;;;;4990783;28;20180;-47
2021/05/31 00:21:06;;;;;;;10.25;9.45;;;;;;;;;;4989306;28;20265;-48
2021/05/31 00:23:31;;;;;;;10.40;9.60;;;;;;;;;;4986353;28;20317;-47
2021/05/31 00:25:56;;;;;;;11.57;10.07;;;;;;;;;;4988423;28;20831;-47
2021/05/31 00:28:21;;;;;;;10.60;9.80;;;;;;;;;;4987850;28;20202;-47
2021/05/31 00:30:46;;;;;;;11.18;10.30;;;;;;;;;;4991609;28;20233;-47
2021/05/31 00:33:11;;;;;;;10.90;9.90;;;;;;;;;;4987551;28;20191;-47
2021/05/31 00:35:37;;;;;;;10.70;9.83;;;;;;;;;;4988354;28;20197;-47
2021/05/31 00:38:02;;;;;;;10.40;9.60;;;;;;;;;;4988835;28;20178;-47
2021/05/31 00:40:28;;;;;;;12.20;11.10;;;;;;;;;;4986382;28;20196;-47
2021/05/31 00:42:53;;;;;;;10.87;9.97;;;;;;;;;;4987972;28;20260;-46
2021/05/31 00:45:18;;;;;;;10.50;9.70;;;;;;;;;;4991619;28;20189;-48
2021/05/31 00:47:43;;;;;;;11.50;10.50;;;;;;;;;;4986698;28;20197;-48
2021/05/31 00:50:10;;;;;;;11.53;10.53;;;;;;;;;;4986897;28;20188;-47
2021/05/31 00:52:35;;;;;;;10.63;9.77;;;;;;;;;;4986349;28;20172;-47
2021/05/31 00:55:00;;;;;;;11.20;10.20;;;;;;;;;;4977213;28;20697;-47
2021/05/31 00:57:26;;;;;;;9.93;9.13;;;;;;;;;;4984894;28;20173;-47
2021/05/31 00:59:51;;;;;;;11.53;10.53;;;;;;;;;;4995168;28;20560;-47
2021/05/31 01:02:16;;;;;;;10.87;9.97;;;;;;;;;;4990773;28;20181;-48
2021/05/31 01:04:41;;;;;;;9.87;9.07;;;;;;;;;;4986881;28;20556;-47
2021/05/31 01:07:15;;;;;;;10.63;9.73;;;;;;;;;;4986001;28;20213;-47
2021/05/31 01:09:58;;;;;;;10.30;9.50;;;;;;;;;;4986920;28;20187;-47
2021/05/31 01:12:35;;;;;;;11.00;10.10;;;;;;;;;;4987353;28;20633;-47
2021/05/31 01:15:03;;;;;;;11.00;10.10;;;;;;;;;;4978253;28;21000;-47
2021/05/31 01:17:34;;;;;;;11.70;10.80;;;;;;;;;;4986045;28;20709;-47
2021/05/31 01:20:07;;;;;;;12.53;10.50;;;;;;;;;;4986600;28;20573;-47
2021/05/31 01:22:34;;;;;;;11.73;10.70;;;;;;;;;;4982503;28;20600;-47
2021/05/31 01:25:07;;;;;;;11.40;10.00;;;;;;;;;;4979159;28;20599;-47
2021/05/31 01:27:38;;;;;;;11.00;10.10;;;;;;;;;;4982168;28;20609;-47
2021/05/31 01:30:10;;;;;;;11.10;10.17;;;;;;;;;;4986229;28;20660;-47
2021/05/31 01:32:39;;;;;;;10.60;9.70;;;;;;;;;;4988012;28;20614;-46
2021/05/31 01:35:10;;;;;;;9.97;9.03;;;;;;;;;;4985666;28;21499;-47
2021/05/31 01:37:38;;;;;;;10.80;9.90;;;;;;;;;;4985866;28;20711;-47
2021/05/31 01:40:04;;;;;;;11.33;10.23;;;;;;;;;;4984996;28;20604;-47
2021/05/31 01:42:30;;;;;;;10.23;9.43;;;;;;;;;;4984992;28;20643;-47
2021/05/31 01:44:55;;;;;;;10.30;9.30;;;;;;;;;;4988191;28;20600;-47
2021/05/31 01:47:20;;;;;;;10.30;9.50;;;;;;;;;;4986234;28;20178;-48
2021/05/31 01:49:46;;;;;;;10.93;9.93;;;;;;;;;;4986965;28;21110;-47
2021/05/31 01:52:12;;;;;;;11.07;10.07;;;;;;;;;;4985377;28;20210;-47
2021/05/31 01:54:37;;;;;;;10.70;9.77;;;;;;;;;;4987587;28;20174;-46
2021/05/31 01:57:03;;;;;;;11.57;10.37;;;;;;;;;;4989732;28;20681;-47
2021/05/31 01:59:29;;;;;;;10.90;9.90;;;;;;;;;;4982315;28;20185;-47
2021/05/31 02:01:54;;;;;;;11.90;10.80;;;;;;;;;;4984189;28;20181;-47
2021/05/31 02:04:19;;;;;;;11.77;10.43;;;;;;;;;;4986886;28;20558;-47
2021/05/31 02:06:44;;;;;;;12.33;11.13;;;;;;;;;;4987917;28;20183;-47
2021/05/31 02:09:09;;;;;;;13.00;11.68;;;;;;;;;;4987051;28;20180;-46
2021/05/31 02:11:41;;;;;;;12.38;11.13;;;;;;;;;;4985356;28;20368;-47
2021/05/31 02:14:09;;;;;;;10.90;10.00;;;;;;;;;;4989015;28;20206;-49
2021/05/31 02:16:40;;;;;;;10.90;10.00;;;;;;;;;;4985586;28;21138;-47
2021/05/31 02:19:05;;;;;;;11.47;10.47;;;;;;;;;;4985518;28;21130;-46
2021/05/31 02:21:30;;;;;;;12.20;11.10;;;;;;;;;;4987347;28;20620;-47
2021/05/31 02:23:57;;;;;;;11.60;10.50;;;;;;;;;;4984822;28;20182;-46
2021/05/31 02:26:22;;;;;;;11.67;10.70;;;;;;;;;;4995805;28;20231;-47
2021/05/31 02:28:48;;;;;;;10.70;9.80;;;;;;;;;;4985396;28;20710;-47
2021/05/31 02:31:17;;;;;;;11.40;10.40;;;;;;;;;;4984581;28;20252;-46
2021/05/31 02:33:43;;;;;;;10.93;10.03;;;;;;;;;;4986806;28;20677;-47
2021/05/31 02:36:09;;;;;;;11.00;9.90;;;;;;;;;;4990174;28;20614;-47
2021/05/31 02:38:34;;;;;;;11.43;10.43;;;;;;;;;;4985461;28;20585;-48
2021/05/31 02:40:59;;;;;;;11.00;10.10;;;;;;;;;;4986737;28;20183;-48
2021/05/31 02:43:24;;;;;;;12.25;11.10;;;;;;;;;;4984813;28;20664;-48
2021/05/31 02:45:49;;;;;;;11.57;10.67;;;;;;;;;;4986673;28;20194;-48
2021/05/31 02:48:15;;;;;;;11.07;10.00;;;;;;;;;;4985008;28;20177;-48
2021/05/31 02:50:40;;;;;;;11.73;10.73;;;;;;;;;;4986330;28;20709;-47
2021/05/31 02:53:05;;;;;;;12.17;11.03;;;;;;;;;;4984966;28;20179;-47
2021/05/31 02:55:31;;;;;;;12.33;11.23;;;;;;;;;;4992527;28;20667;-47
2021/05/31 02:57:57;;;;;;;13.70;11.17;;;;;;;;;;4987489;28;20180;-47
2021/05/31 03:00:23;;;;;;;12.30;11.00;;;;;;;;;;4984874;28;20200;-46
2021/05/31 03:02:49;;;;;;;10.97;9.97;;;;;;;;;;4989084;28;20177;-47
2021/05/31 03:05:16;;;;;;;13.37;12.17;;;;;;;;;;4991532;28;20608;-47
2021/05/31 03:07:41;;;;;;;12.43;11.27;;;;;;;;;;5010679;28;20259;-47
2021/05/31 03:10:06;;;;;;;12.03;10.93;;;;;;;;;;4987920;28;20707;-47
2021/05/31 03:12:31;;;;;;;11.73;10.73;;;;;;;;;;4989742;28;20280;-47
2021/05/31 03:14:57;;;;;;;11.45;10.52;;;;;;;;;;4993539;28;20180;-48
2021/05/31 03:17:22;;;;;;;13.43;10.87;;;;;;;;;;4986831;28;20691;-47
2021/05/31 03:19:47;;;;;;;12.27;11.10;;;;;;;;;;4990523;28;20184;-47
2021/05/31 03:22:12;;;;;;;12.20;11.20;;;;;;;;;;4988528;28;20622;-47
2021/05/31 03:24:37;;;;;;;12.00;10.90;;;;;;;;;;4989317;28;20206;-47
2021/05/31 03:27:03;;;;;;;12.35;11.15;;;;;;;;;;4987713;28;20185;-47
2021/05/31 03:29:29;;;;;;;11.77;10.67;;;;;;;;;;4989906;28;20206;-46
2021/05/31 03:31:54;;;;;;;11.13;10.13;;;;;;;;;;4988142;28;20231;-46
2021/05/31 03:34:19;;;;;;;13.07;11.97;;;;;;;;;;4985249;28;20232;-46
2021/05/31 03:36:44;;;;;;;12.90;11.70;;;;;;;;;;4988730;28;20537;-46
2021/05/31 03:39:09;;;;;;;12.00;11.00;;;;;;;;;;4984409;28;20184;-47
2021/05/31 03:41:34;;;;;;;11.70;10.80;;;;;;;;;;4986685;28;20174;-46
2021/05/31 03:44:00;;;;;;;9.90;9.00;;;;;;;;;;4984080;28;20187;-47
2021/05/31 03:46:25;;;;;;;10.07;9.27;;;;;;;;;;4967100;28;20187;-47
2021/05/31 03:48:52;;;;;;;10.95;9.95;;;;;;;;;;4984780;28;20171;-47
2021/05/31 03:51:18;;;;;;;9.70;8.90;;;;;;;;;;4987129;28;20327;-47
2021/05/31 03:53:43;;;;;;;10.20;9.40;;;;;;;;;;4983295;28;21085;-47
2021/05/31 03:56:08;;;;;;;10.30;9.50;;;;;;;;;;4987300;28;20666;-47
2021/05/31 03:58:34;;;;;;;9.50;8.80;;;;;;;;;;4987382;28;20880;-48
2021/05/31 04:01:00;;;;;;;10.23;9.33;;;;;;;;;;4989006;28;20302;-47
2021/05/31 04:03:26;;;;;;;9.57;8.77;;;;;;;;;;4987419;28;21128;-47
2021/05/31 04:06:02;;;;;;;9.80;8.90;;;;;;;;;;4985401;28;20604;-47
2021/05/31 04:13:55;;;;;;;9.30;8.47;;;;;;;;;;4985101;28;20605;-47
2021/05/31 04:16:20;;;;;;;9.10;8.40;;;;;;;;;;5001615;28;20599;-47
2021/05/31 04:18:45;;;;;;;8.40;7.70;;;;;;;;;;4995368;28;20176;-47
2021/05/31 04:21:10;;;;;;;8.33;7.70;;;;;;;;;;4983706;28;20192;-47
2021/05/31 04:23:35;;;;;;;8.40;7.70;;;;;;;;;;4987005;28;20185;-47
2021/05/31 04:26:00;;;;;;;9.38;8.57;;;;;;;;;;4985989;28;20629;-47
2021/05/31 04:28:26;;;;;;;9.25;8.30;;;;;;;;;;4983598;28;20201;-47
2021/05/31 04:30:51;;;;;;;10.25;9.27;;;;;;;;;;4986320;28;20222;-48
2021/05/31 04:33:16;;;;;;;8.80;8.10;;;;;;;;;;4983638;28;20926;-47
2021/05/31 04:35:41;;;;;;;8.40;7.80;;;;;;;;;;4981728;28;20225;-47
2021/05/31 04:38:06;;;;;;;7.90;7.30;;;;;;;;;;4985829;28;20185;-48
2021/05/31 04:40:31;;;;;;;7.97;7.38;;;;;;;;;;4985608;28;20704;-47
2021/05/31 04:42:57;;;;;;;7.87;7.37;;;;;;;;;;4983350;28;20195;-47
2021/05/31 04:45:22;;;;;;;7.80;7.30;;;;;;;;;;4983584;28;20245;-47
2021/05/31 04:47:47;;;;;;;7.90;7.30;;;;;;;;;;4986246;28;20180;-47
2021/05/31 04:50:12;;;;;;;7.30;6.70;;;;;;;;;;4982246;28;20217;-49
2021/05/31 04:52:37;;;;;;;7.10;6.57;;;;;;;;;;4985804;28;20205;-48
2021/05/31 04:55:03;;;;;;;6.20;5.80;;;;;;;;;;4983415;28;20635;-48
2021/05/31 04:57:28;;;;;;;6.30;5.83;;;;;;;;;;4983735;28;20188;-48
2021/05/31 04:59:53;;;;;;;8.10;7.30;;;;;;;;;;4986852;28;20175;-48
2021/05/31 05:02:19;;;;;;;7.70;7.20;;;;;;;;;;4981787;28;20192;-48
2021/05/31 05:04:44;;;;;;;7.20;6.60;;;;;;;;;;4983252;28;20219;-49
2021/05/31 05:07:12;;;;;;;7.40;6.77;;;;;;;;;;4983732;28;20274;-47
2021/05/31 05:09:37;;;;;;;7.00;6.60;;;;;;;;;;4986408;28;20776;-48
2021/05/31 05:12:03;;;;;;;7.07;6.47;;;;;;;;;;4983431;28;20743;-48
2021/05/31 05:14:28;;;;;;;7.20;6.70;;;;;;;;;;4987515;28;20920;-48
2021/05/31 05:16:53;;;;;;;6.38;5.68;;;;;;;;;;4988723;28;20261;-48
2021/05/31 05:19:19;;;;;;;6.77;6.23;;;;;;;;;;4996969;28;20686;-48
2021/05/31 05:21:44;;;;;;;6.93;6.47;;;;;;;;;;4989856;28;20222;-47
2021/05/31 05:24:11;;;;;;;7.13;6.60;;;;;;;;;;4987079;28;20618;-46
2021/05/31 05:26:37;;;;;;;7.00;6.50;;;;;;;;;;4985970;28;20785;-47
2021/05/31 05:29:02;;;;;;;6.88;6.40;;;;;;;;;;4990514;28;21454;-47
2021/05/31 05:31:27;;;;;;;7.07;6.40;;;;;;;;;;4988155;28;20688;-48
2021/05/31 05:33:52;;;;;;;7.20;6.70;;;;;;;;;;4986142;28;20166;-49
2021/05/31 05:36:31;;;;;;;6.77;6.27;;;;;;;;;;4987700;28;20170;-48
2021/05/31 05:39:15;;;;;;;6.47;5.97;;;;;;;;;;4988216;28;20176;-48
2021/05/31 05:46:47;;;;;;;7.47;6.95;;;;;;;;;;4988470;28;20242;-48
2021/05/31 05:49:12;;;;;;;6.83;6.33;;;;;;;;;;4986584;28;20170;-48
2021/05/31 05:51:37;;;;;;;7.83;7.07;;;;;;;;;;4989543;28;20655;-48
2021/05/31 05:54:04;;;;;;;8.70;7.10;;;;;;;;;;4983190;28;20178;-47
2021/05/31 05:56:29;;;;;;;7.40;6.70;;;;;;;;;;4987643;28;20200;-46
2021/05/31 05:58:56;;;;;;;6.27;5.80;;;;;;;;;;4983883;28;20606;-47
2021/05/31 06:01:22;;;;;;;6.13;5.63;;;;;;;;;;4993381;28;20805;-46
2021/05/31 06:03:53;;;;;;;6.60;6.10;;;;;;;;;;4982231;28;20620;-47
2021/05/31 06:06:19;;;;;;;5.43;5.13;;;;;;;;;;4979976;28;20185;-47
2021/05/31 06:08:44;;;;;;;6.60;6.00;;;;;;;;;;4984278;28;20589;-48
2021/05/31 06:11:09;;;;;;;7.17;6.57;;;;;;;;;;4984526;28;20700;-48
2021/05/31 06:13:34;;;;;;;6.80;6.20;;;;;;;;;;4981940;28;20226;-46
2021/05/31 06:16:01;;;;;;;6.97;6.47;;;;;;;;;;4979952;28;20175;-47
2021/05/31 06:18:26;;;;;;;6.27;5.87;;;;;;;;;;4982338;28;20747;-47
2021/05/31 06:20:52;;;;;;;7.97;7.40;;;;;;;;;;4985141;28;20727;-47
2021/05/31 06:23:17;;;;;;;7.07;6.67;;;;;;;;;;4984396;28;20602;-47
2021/05/31 06:25:42;;;;;;;7.75;7.25;;;;;;;;;;4982659;28;20272;-46
2021/05/31 06:28:07;;;;;;;7.67;6.93;;;;;;;;;;4982106;28;20239;-47
2021/05/31 06:30:33;;;;;;;8.30;7.70;;;;;;;;;;4995792;28;20370;-48
2021/05/31 06:32:59;;;;;;;8.17;7.57;;;;;;;;;;4986039;28;20187;-47
2021/05/31 06:35:25;;;;;;;8.00;7.37;;;;;;;;;;4983789;28;20671;-48
2021/05/31 06:37:50;;;;;;;9.20;8.40;;;;;;;;;;4986205;28;20211;-48
2021/05/31 06:40:16;;;;;;;8.30;7.70;;;;;;;;;;4986340;28;20605;-49
2021/05/31 06:42:42;;;;;;;7.70;7.10;;;;;;;;;;4986075;28;20185;-46
2021/05/31 06:45:08;;;;;;;7.70;7.10;;;;;;;;;;4989172;28;20253;-47
2021/05/31 06:47:34;;;;;;;9.37;8.53;;;;;;;;;;4987867;28;20921;-47
2021/05/31 06:49:59;;;;;;;8.40;7.80;;;;;;;;;;4986889;28;20604;-48
2021/05/31 06:52:24;;;;;;;7.95;7.25;;;;;;;;;;4985567;28;20204;-47
2021/05/31 06:54:49;;;;;;;8.98;8.27;;;;;;;;;;4985491;28;20180;-48
2021/05/31 06:57:15;;;;;;;9.47;8.77;;;;;;;;;;4987283;28;20172;-48
2021/05/31 06:59:40;;;;;;;8.43;7.73;;;;;;;;;;4988795;28;20226;-49
2021/05/31 07:02:05;;;;;;;7.45;6.95;;;;;;;;;;4986844;28;20189;-48
2021/05/31 07:04:30;;;;;;;8.00;7.32;;;;;;;;;;4988290;28;20208;-48
2021/05/31 07:06:55;;;;;;;7.70;7.18;;;;;;;;;;4988179;28;20206;-48
2021/05/31 07:09:20;;;;;;;8.65;8.05;;;;;;;;;;4987951;28;20242;-47
2021/05/31 07:11:47;;;;;;;7.97;7.33;;;;;;;;;;4988240;28;20292;-48
2021/05/31 07:14:18;;;;;;;7.77;7.10;;;;;;;;;;4990219;28;20643;-46
2021/05/31 07:16:44;;;;;;;9.30;8.50;;;;;;;;;;5008261;28;20563;-47
2021/05/31 07:19:09;;;;;;;9.17;6.97;;;;;;;;;;5008144;28;20610;-47
2021/05/31 07:21:34;;;;;;;7.57;7.00;;;;;;;;;;5010187;28;20663;-48
2021/05/31 07:23:59;;;;;;;7.25;6.75;;;;;;;;;;5009826;28;20186;-47
2021/05/31 07:26:25;;;;;;;7.53;7.03;;;;;;;;;;5006292;28;20202;-47
2021/05/31 07:28:50;;;;;;;7.05;6.55;;;;;;;;;;5008240;28;20553;-47
2021/05/31 07:31:15;;;;;;;7.43;6.73;;;;;;;;;;5006014;28;20232;-47
2021/05/31 07:33:40;;;;;;;7.65;7.15;;;;;;;;;;4991394;28;20184;-48
2021/05/31 07:36:05;;;;;;;7.50;6.90;;;;;;;;;;4988377;28;20169;-47
2021/05/31 07:38:30;;;;;;;6.90;6.40;;;;;;;;;;4990328;28;20177;-48
2021/05/31 07:40:56;;;;;;;6.90;6.40;;;;;;;;;;4988202;28;20175;-48
2021/05/31 07:43:21;;;;;;;6.85;6.35;;;;;;;;;;4990288;28;20317;-47
2021/05/31 07:45:47;;;;;;;6.60;6.10;;;;;;;;;;4987974;28;20906;-48
2021/05/31 07:48:12;;;;;;;6.17;5.67;;;;;;;;;;4989134;28;20178;-47
2021/05/31 07:50:37;;;;;;;5.33;5.03;;;;;;;;;;4989798;28;21163;-47
2021/05/31 07:53:03;;;;;;;5.43;4.93;;;;;;;;;;4989107;28;20193;-47
2021/05/31 07:55:28;;;;;;;4.93;4.63;;;;;;;;;;4987573;28;20196;-47
2021/05/31 07:57:54;;;;;;;5.70;5.30;;;;;;;;;;4989696;28;20163;-48
2021/05/31 08:00:20;;;;;;;4.80;4.40;;;;;;;;;;4982078;28;20193;-48
2021/05/31 08:02:47;;;;;;;5.50;5.10;;;;;;;;;;4974949;28;20600;-48
2021/05/31 08:05:13;;;;;;;5.00;4.60;;;;;;;;;;4997276;28;20188;-48
2021/05/31 08:07:38;;;;;;;5.30;5.00;;;;;;;;;;5006797;28;20588;-48
2021/05/31 08:10:03;;;;;;;4.60;4.30;;;;;;;;;;5006790;28;20690;-45
2021/05/31 08:12:29;;;;;;;5.40;4.90;;;;;;;;;;5003080;28;20655;-49
2021/05/31 08:14:54;;;;;;;6.00;5.47;;;;;;;;;;4993436;28;20183;-48
2021/05/31 08:17:19;;;;;;;5.87;5.33;;;;;;;;;;5009182;28;20185;-49
2021/05/31 08:19:44;;;;;;;5.50;5.00;;;;;;;;;;5008556;28;20180;-49
2021/05/31 08:22:10;;;;;;;5.88;5.47;;;;;;;;;;5007303;28;20196;-49
2021/05/31 08:24:35;;;;;;;5.40;5.00;;;;;;;;;;5006258;28;20662;-48
2021/05/31 08:27:00;;;;;;;5.60;5.20;;;;;;;;;;5007138;28;20189;-47
2021/05/31 08:29:25;;;;;;;5.65;5.13;;;;;;;;;;5004619;28;20201;-47
2021/05/31 08:31:51;;;;;;;5.00;4.60;;;;;;;;;;5005879;28;20325;-48
2021/05/31 08:34:16;;;;;;;4.80;4.50;;;;;;;;;;5008170;28;20177;-48
2021/05/31 08:36:43;;;;;;;4.77;4.47;;;;;;;;;;5008870;28;20510;-49
2021/05/31 08:39:09;;;;;;;4.73;4.27;;;;;;;;;;5007010;28;20312;-48
2021/05/31 08:41:35;;;;;;;4.43;4.13;;;;;;;;;;5006347;28;21029;-48
2021/05/31 08:44:00;;;;;;;5.40;4.47;;;;;;;;;;5006448;28;20653;-49
2021/05/31 08:46:25;;;;;;;4.07;3.73;;;;;;;;;;5005639;28;20189;-47
2021/05/31 08:48:51;;;;;;;3.85;3.55;;;;;;;;;;5008664;28;20728;-48
2021/05/31 08:51:17;;;;;;;3.93;3.70;;;;;;;;;;5005544;28;20203;-48
2021/05/31 08:53:43;;;;;;;4.33;4.03;;;;;;;;;;4984887;28;20582;-49
2021/05/31 08:56:08;;;;;;;4.33;4.00;;;;;;;;;;4988475;28;21150;-49
2021/05/31 08:58:33;;;;;;;3.87;3.60;;;;;;;;;;4988386;28;21037;-49
2021/05/31 09:00:59;;;;;;;4.17;3.50;;;;;;;;;;5000919;28;20188;-48
2021/05/31 09:03:24;;;;;;;4.10;3.80;;;;;;;;;;5007464;28;20368;-48
2021/05/31 09:05:49;;;;;;;4.30;4.00;;;;;;;;;;5006350;28;20292;-49
2021/05/31 09:08:21;;;;;;;4.00;3.70;;;;;;;;;;4995438;28;20185;-48
2021/05/31 09:10:56;;;;;;;4.53;4.17;;;;;;;;;;4986219;28;20226;-49
2021/05/31 09:13:43;;;;;;;4.10;3.70;;;;;;;;;;4986436;28;20637;-48
2021/05/31 09:16:08;;;;;;;5.70;3.87;;;;;;;;;;5002282;28;20611;-49
2021/05/31 09:18:34;;;;;;;4.10;3.80;;;;;;;;;;5008080;28;20582;-48
2021/05/31 09:21:10;;;;;;;4.40;4.07;;;;;;;;;;5005904;28;20179;-48
2021/05/31 09:23:35;;;;;;;3.87;3.57;;;;;;;;;;5007175;28;20597;-48
2021/05/31 09:26:04;;;;;;;4.40;4.10;;;;;;;;;;5005889;28;20611;-49
2021/05/31 09:28:30;;;;;;;3.60;3.40;;;;;;;;;;5006013;28;20710;-48
2021/05/31 09:30:55;;;;;;;4.17;3.87;;;;;;;;;;5006841;28;20660;-49
2021/05/31 09:33:20;;;;;;;3.97;3.67;;;;;;;;;;5008193;28;20578;-50
2021/05/31 09:35:45;;;;;;;3.60;3.40;;;;;;;;;;5002698;28;20556;-48
2021/05/31 09:38:13;;;;;;;3.93;3.63;;;;;;;;;;5005814;28;20173;-49
2021/05/31 09:40:39;;;;;;;3.27;3.07;;;;;;;;;;5005880;28;20517;-49
2021/05/31 09:43:05;;;;;;;3.60;3.40;;;;;;;;;;5006702;28;20744;-48
2021/05/31 09:45:30;;;;;;;3.80;3.50;;;;;;;;;;4995709;28;20235;-48
2021/05/31 09:48:02;;;;;;;3.53;3.33;;;;;;;;;;4985772;28;20577;-49
2021/05/31 09:50:28;;;;;;;5.73;4.20;;;;;;;;;;4985206;28;20196;-48
2021/05/31 09:53:12;;;;;;;4.60;4.30;;;;;;;;;;4987860;28;20583;-49
2021/05/31 09:55:39;;;;;;;3.77;3.47;;;;;;;;;;4994383;28;20596;-47
2021/05/31 09:58:08;;;;;;;3.60;3.40;;;;;;;;;;5005230;28;21161;-49
2021/05/31 10:00:33;;;;;;;7.00;3.50;;;;;;;;;;4995333;28;20616;-48
2021/05/31 10:05:53;;;;;;;4.03;3.67;;;;;;;;;;4993645;28;20363;-49
2021/05/31 10:10:59;;;;;;;4.23;3.93;;;;;;;;;;4992186;28;20635;-48
2021/05/31 10:13:24;;;;;;;4.27;3.90;;;;;;;;;;4987059;28;20583;-47
2021/05/31 10:15:50;;;;;;;3.77;3.53;;;;;;;;;;4999186;28;20184;-47
2021/05/31 10:18:16;;;;;;;4.40;4.10;;;;;;;;;;5003191;28;20181;-48
2021/05/31 10:20:42;;;;;;;3.43;3.23;;;;;;;;;;5006845;28;20892;-48
2021/05/31 10:23:08;;;;;;;3.90;3.70;;;;;;;;;;5007003;28;20671;-48
2021/05/31 10:25:34;;;;;;;4.83;4.43;;;;;;;;;;4995955;28;20251;-48
2021/05/31 10:28:16;;;;;;;4.23;3.93;;;;;;;;;;4985011;28;20668;-47
2021/05/31 10:30:42;;;;;;;6.40;4.33;;;;;;;;;;4999629;28;20758;-48
2021/05/31 10:33:12;;;;;;;4.70;4.40;;;;;;;;;;5004973;28;21174;-47
2021/05/31 10:35:37;;;;;;;4.90;4.20;;;;;;;;;;5003043;28;20591;-47
2021/05/31 10:38:09;;;;;;;4.77;4.40;;;;;;;;;;5006837;28;20583;-47
2021/05/31 10:40:36;;;;;;;4.23;4.00;;;;;;;;;;5005077;28;20170;-47
2021/05/31 10:43:05;;;;;;;4.23;3.90;;;;;;;;;;5006693;28;20581;-48
2021/05/31 10:45:30;;;;;;;5.03;4.63;;;;;;;;;;4994153;28;20696;-47
2021/05/31 10:47:57;;;;;;;4.87;4.47;;;;;;;;;;4987470;28;20684;-48
2021/05/31 10:50:26;;;;;;;4.70;4.30;;;;;;;;;;4985452;28;20172;-47
2021/05/31 10:52:51;;;;;;;4.13;3.83;;;;;;;;;;4984690;28;20632;-48
2021/05/31 10:55:17;;;;;;;4.53;4.23;;;;;;;;;;4987511;28;21428;-47
2021/05/31 10:57:42;;;;;;;5.23;4.70;;;;;;;;;;4986886;28;20526;-47
2021/05/31 11:00:07;;;;;;;4.82;4.43;;;;;;;;;;4984985;28;20170;-46
2021/05/31 11:02:32;;;;;;;4.90;4.50;;;;;;;;;;4986603;28;20240;-48
2021/05/31 11:05:09;;;;;;;5.35;4.95;;;;;;;;;;4985258;28;20267;-48
2021/05/31 11:07:34;;;;;;;5.17;4.77;;;;;;;;;;4967140;28;20247;-49
2021/05/31 11:09:59;;;;;;;5.30;4.90;;;;;;;;;;4983509;28;21138;-49
2021/05/31 11:12:28;;;;;;;4.50;4.20;;;;;;;;;;4986783;28;20217;-49
2021/05/31 11:15:04;;;;;;;5.03;4.53;;;;;;;;;;4990609;28;20220;-48
2021/05/31 11:17:29;;;;;;;4.70;4.40;;;;;;;;;;5004440;28;20583;-48
2021/05/31 11:19:54;;;;;;;4.50;4.20;;;;;;;;;;5006104;28;20573;-48
2021/05/31 11:22:27;;;;;;;4.80;4.40;;;;;;;;;;5006610;28;20179;-48
2021/05/31 11:24:55;;;;;;;4.60;4.30;;;;;;;;;;5006190;28;20174;-48
2021/05/31 11:27:21;;;;;;;4.03;3.80;;;;;;;;;;5006456;28;20595;-48
2021/05/31 11:29:46;;;;;;;4.30;3.87;;;;;;;;;;5003651;28;21296;-47
2021/05/31 11:32:12;;;;;;;5.13;4.72;;;;;;;;;;4990155;28;21243;-48
2021/05/31 11:34:38;;;;;;;4.20;3.90;;;;;;;;;;4987871;28;20633;-48
2021/05/31 11:37:03;;;;;;;3.80;3.60;;;;;;;;;;4991198;28;20765;-47
2021/05/31 11:39:31;;;;;;;4.03;3.67;;;;;;;;;;4988389;28;20664;-48
2021/05/31 11:41:57;;;;;;;6.47;4.43;;;;;;;;;;4990322;28;20183;-47
2021/05/31 11:44:30;;;;;;;4.40;4.00;;;;;;;;;;4995387;28;20646;-47
2021/05/31 11:46:56;;;;;;;4.63;4.33;;;;;;;;;;5007672;28;20178;-48
2021/05/31 11:49:23;;;;;;;4.27;4.00;;;;;;;;;;4997303;28;20623;-48
2021/05/31 11:52:02;;;;;;;4.20;3.90;;;;;;;;;;4987839;28;20631;-48
2021/05/31 11:54:30;;;;;;;4.30;4.00;;;;;;;;;;4990736;28;20859;-49
2021/05/31 11:56:57;;;;;;;3.83;3.53;;;;;;;;;;4989668;28;21178;-49
2021/05/31 11:59:23;;;;;;;4.57;4.17;;;;;;;;;;4989776;28;20576;-48
2021/05/31 12:01:49;;;;;;;4.53;4.07;;;;;;;;;;5009403;28;20572;-48
2021/05/31 12:04:14;;;;;;;4.50;4.10;;;;;;;;;;5009232;28;20572;-48
2021/05/31 12:06:40;;;;;;;3.80;3.60;;;;;;;;;;5003434;28;20608;-47
2021/05/31 12:09:14;;;;;;;4.13;3.83;;;;;;;;;;4989791;28;20198;-47
2021/05/31 12:11:39;;;;;;;4.77;4.10;;;;;;;;;;4987804;28;20669;-47
2021/05/31 12:14:04;;;;;;;3.70;3.40;;;;;;;;;;4988903;28;20574;-47
2021/05/31 12:16:29;;;;;;;4.05;3.75;;;;;;;;;;5006381;28;20271;-49
2021/05/31 12:18:55;;;;;;;3.75;3.55;;;;;;;;;;5006495;28;20185;-49
2021/05/31 12:21:20;;;;;;;3.57;3.37;;;;;;;;;;4987741;28;20686;-48
2021/05/31 12:23:49;;;;;;;3.95;3.65;;;;;;;;;;4986680;28;20181;-49
2021/05/31 12:26:14;;;;;;;4.13;3.73;;;;;;;;;;4983778;28;20209;-47
2021/05/31 12:28:39;;;;;;;3.87;3.57;;;;;;;;;;4988526;28;20662;-47
2021/05/31 12:31:05;;;;;;;4.00;3.70;;;;;;;;;;4982694;28;20703;-48
2021/05/31 12:33:30;;;;;;;4.10;3.70;;;;;;;;;;4988442;28;20182;-48
2021/05/31 12:35:56;;;;;;;5.07;3.50;;;;;;;;;;4987574;28;21034;-48
2021/05/31 12:38:21;;;;;;;5.00;3.27;;;;;;;;;;4987485;28;20297;-49
2021/05/31 12:40:47;;;;;;;4.70;4.30;;;;;;;;;;4985919;28;20189;-49
2021/05/31 12:43:12;;;;;;;6.60;3.90;;;;;;;;;;4988952;28;20253;-49
2021/05/31 12:45:41;;;;;;;4.27;3.90;;;;;;;;;;4986597;28;20665;-48
2021/05/31 12:48:14;;;;;;;4.30;4.00;;;;;;;;;;4986392;28;20178;-48
2021/05/31 12:50:39;;;;;;;3.90;3.60;;;;;;;;;;4988574;28;20561;-48
2021/05/31 12:53:05;;;;;;;4.87;3.90;;;;;;;;;;4988318;28;20567;-48
2021/05/31 12:55:31;;;;;;;3.67;3.47;;;;;;;;;;4993798;28;20174;-48
2021/05/31 12:57:56;;;;;;;4.03;3.73;;;;;;;;;;4995670;28;20211;-49
2021/05/31 13:00:22;;;;;;;4.13;3.83;;;;;;;;;;4988095;28;20253;-49
2021/05/31 13:02:52;;;;;;;4.90;4.47;;;;;;;;;;4986373;28;20174;-49
2021/05/31 13:05:20;;;;;;;4.20;3.80;;;;;;;;;;4987059;28;20769;-48
2021/05/31 13:07:49;;;;;;;3.77;3.57;;;;;;;;;;5005851;28;20586;-48
2021/05/31 13:10:19;;;;;;;3.43;3.23;;;;;;;;;;5000699;28;20603;-49
2021/05/31 13:12:59;;;;;;;3.57;3.37;;;;;;;;;;4987117;28;20642;-48
2021/05/31 13:15:38;;;;;;;4.50;4.10;;;;;;;;;;4988612;28;21346;-48
2021/05/31 13:18:20;;;;;;;4.67;3.97;;;;;;;;;;5001288;28;20628;-49
2021/05/31 13:20:46;;;;;;;4.00;3.60;;;;;;;;;;4987693;28;20643;-48
2021/05/31 13:23:16;;;;;;;4.83;4.40;;;;;;;;;;4983742;28;21019;-53
2021/05/31 13:25:45;;;;;;;3.97;3.67;;;;;;;;;;4987905;28;20769;-48
2021/05/31 13:28:12;;;;;;;4.07;3.87;;;;;;;;;;4987309;28;20626;-48
2021/05/31 13:30:38;;;;;;;3.80;3.60;;;;;;;;;;4996644;28;20694;-48
2021/05/31 13:33:05;;;;;;;4.17;3.77;;;;;;;;;;4985473;28;21002;-48
2021/05/31 13:35:30;;;;;;;4.07;3.70;;;;;;;;;;4985216;28;20256;-48
2021/05/31 13:37:56;;;;;;;3.80;3.60;;;;;;;;;;4987194;28;21330;-48
2021/05/31 13:40:32;;;;;;;3.83;3.63;;;;;;;;;;4983956;28;20170;-48
2021/05/31 13:43:06;;;;;;;4.23;3.93;;;;;;;;;;4985399;28;21375;-49
2021/05/31 13:45:32;;;;;;;4.27;3.87;;;;;;;;;;4989477;28;20691;-47
2021/05/31 13:47:57;;;;;;;4.23;3.80;;;;;;;;;;4987304;28;20665;-48
2021/05/31 13:50:24;;;;;;;4.27;3.97;;;;;;;;;;4981893;28;20644;-47
2021/05/31 13:52:49;;;;;;;4.00;3.70;;;;;;;;;;4984509;28;20371;-47
2021/05/31 13:55:14;;;;;;;4.30;3.90;;;;;;;;;;4989283;28;20604;-49
2021/05/31 13:57:43;;;;;;;4.10;3.80;;;;;;;;;;4997035;28;20265;-48
2021/05/31 14:00:12;;;;;;;4.40;4.00;;;;;;;;;;4991600;28;20581;-48
2021/05/31 14:02:37;;;;;;;5.47;4.20;;;;;;;;;;4996126;28;20605;-49
2021/05/31 14:05:03;;;;;;;4.30;3.90;;;;;;;;;;4982658;28;20604;-48
2021/05/31 14:07:28;;;;;;;4.33;3.90;;;;;;;;;;4983106;28;20182;-49
2021/05/31 14:09:55;;;;;;;4.00;3.70;;;;;;;;;;4982443;28;20765;-48
2021/05/31 14:12:20;;;;;;;5.83;3.80;;;;;;;;;;4983916;28;20975;-48
2021/05/31 14:14:46;;;;;;;4.05;3.85;;;;;;;;;;4983265;28;21190;-48
2021/05/31 14:17:11;;;;;;;4.70;4.30;;;;;;;;;;4984090;28;20183;-48
2021/05/31 14:19:36;;;;;;;4.23;3.83;;;;;;;;;;4972456;28;20170;-49
2021/05/31 14:22:03;;;;;;;3.90;3.60;;;;;;;;;;4983860;28;20182;-48
2021/05/31 14:24:29;;;;;;;4.23;3.83;;;;;;;;;;4984273;28;20431;-48
2021/05/31 14:26:54;;;;;;;4.50;4.20;;;;;;;;;;4991433;28;21392;-48
2021/05/31 14:29:19;;;;;;;5.40;4.90;;;;;;;;;;4998324;28;20608;-49
2021/05/31 14:31:44;;;;;;;4.20;3.90;;;;;;;;;;4983974;28;20316;-49
2021/05/31 14:34:09;;;;;;;4.10;3.80;;;;;;;;;;4981731;28;20186;-48
2021/05/31 14:36:34;;;;;;;4.07;3.87;;;;;;;;;;4980755;28;20603;-48
2021/05/31 14:39:00;;;;;;;4.17;3.87;;;;;;;;;;4987248;28;20178;-48
2021/05/31 14:41:25;;;;;;;3.97;3.78;;;;;;;;;;4983580;28;20182;-48
2021/05/31 14:43:50;;;;;;;4.30;4.00;;;;;;;;;;4985474;28;20178;-48
2021/05/31 14:46:16;;;;;;;3.90;3.60;;;;;;;;;;4982465;28;20195;-48
2021/05/31 14:48:44;;;;;;;4.07;3.60;;;;;;;;;;4986633;28;20556;-48
2021/05/31 14:51:10;;;;;;;3.73;3.43;;;;;;;;;;4997291;28;20726;-49